Data for 05/02/2007

Time Sea-Level Adjusted Pressure Absolute Pressure Temperature Relative Humidity Dew Point   
(mb) (inHg) (mb) (inHg) (C) (F) (%) (C) (F)
00:05 1010 29.83 839 24.78 15.6 60.1 60 7.9 46.1
00:10 1010 29.83 839 24.78 15.6 60.1 59 7.8 46
00:15 1010 29.83 839 24.78 15.6 60 59 7.8 46
00:20 1010 29.83 839 24.78 15.2 59.4 61 7.7 45.9
00:25 1010 29.83 839 24.78 15.2 59.4 59 7.3 45.2
00:30 1010 29.83 839 24.78 15.2 59.4 59 7.3 45.1
00:35 1010 29.83 839 24.78 15.2 59.3 58 7.2 44.9
00:40 1010 29.83 839 24.78 15.1 59.3 59 7.3 45.1
00:45 1010 29.83 839 24.78 15.1 59.2 59 7.2 45
00:50 1010 29.83 839 24.78 15.1 59.2 58 7.1 44.7
00:55 1010 29.83 839 24.78 15.2 59.3 59 7.2 44.9
01:00 1010 29.83 839 24.78 15.1 59.2 59 7.1 44.8
01:05 1010 29.83 839 24.78 15.3 59.5 58 7.1 44.8
01:10 1010 29.83 839 24.78 15.3 59.6 58 7.2 44.9
01:15 1010 29.83 839 24.78 15.2 59.4 58 7.1 44.8
01:20 1010 29.83 839 24.78 15.2 59.3 57 6.9 44.3
01:25 1010 29.83 839 24.78 15.3 59.5 58 7.1 44.7
01:30 1010 29.83 839 24.78 15.2 59.3 59 7.4 45.3
01:35 1009 29.8 839 24.78 15.1 59.1 60 7.4 45.3
01:40 1009 29.8 839 24.78 15 59 60 7.4 45.4
01:45 1009 29.8 839 24.78 14.8 58.6 60 7.2 45
01:50 1009 29.8 839 24.78 14.7 58.5 61 7.2 45
01:55 1009 29.8 838 24.75 14.6 58.3 60 6.9 44.5
02:00 1009 29.8 838 24.75 14.6 58.3 60 7 44.6
02:05 1009 29.8 838 24.75 14.5 58.1 61 7 44.7
02:10 1009 29.8 838 24.75 14.4 57.9 61 7.1 44.7
02:15 1009 29.8 838 24.75 14.3 57.7 62 7.1 44.7
02:20 1009 29.8 838 24.75 14.1 57.4 61 6.9 44.3
02:25 1009 29.8 838 24.75 14.4 57.9 59 6.6 43.8
02:30 1009 29.8 838 24.75 14.8 58.6 58 6.7 44.1
02:35 1009 29.8 838 24.75 14.8 58.7 58 6.8 44.2
02:40 1009 29.8 838 24.75 14.9 58.8 59 6.9 44.5
02:45 1009 29.8 838 24.75 14.8 58.6 61 7.3 45.2
02:50 1009 29.8 838 24.75 14.7 58.5 60 7 44.6
02:55 1009 29.8 838 24.75 14.5 58.2 61 7.2 45
03:00 1009 29.8 838 24.75 14.4 58 60 6.9 44.4
03:05 1009 29.8 838 24.75 14.3 57.8 61 6.9 44.4
03:10 1009 29.8 838 24.75 14.3 57.7 61 7 44.5
03:15 1009 29.8 838 24.75 14.2 57.6 61 6.9 44.5
03:20 1009 29.8 838 24.75 14.2 57.5 61 6.8 44.3
03:25 1009 29.8 838 24.75 14.2 57.5 60 6.7 44
03:30 1009 29.8 838 24.75 14.1 57.3 62 6.9 44.4
03:35 1009 29.8 838 24.75 14 57.2 61 6.6 44
03:40 1009 29.8 838 24.75 14 57.2 61 6.7 44.1
03:45 1009 29.8 838 24.75 13.8 56.9 60 6.3 43.4
03:50 1009 29.8 838 24.75 13.7 56.7 60 6.1 43
03:55 1009 29.8 838 24.75 13.5 56.4 60 6.1 42.9
04:00 1009 29.8 838 24.75 13.5 56.3 61 6.1 43
04:05 1009 29.8 838 24.75 13.5 56.3 61 6.1 43
04:10 1009 29.8 838 24.75 13.5 56.3 61 6.2 43.1
04:15 1009 29.8 838 24.75 13.6 56.4 59 5.9 42.6
04:20 1009 29.8 838 24.75 13.8 56.8 59 6 42.9
04:25 1009 29.8 838 24.75 13.8 56.9 58 5.8 42.5
04:30 1009 29.8 838 24.75 13.8 56.8 58 5.8 42.4
04:35 1009 29.8 838 24.75 13.8 56.8 58 5.6 42.1
04:40 1009 29.8 838 24.75 13.7 56.7 58 5.7 42.2
04:45 1009 29.8 838 24.75 13.6 56.6 58 5.5 41.9
04:50 1009 29.8 838 24.75 13.6 56.5 56 5.1 41.1
04:55 1009 29.8 838 24.75 13.8 56.8 54 4.8 40.7
05:00 1008 29.77 838 24.75 13.9 57.1 54 4.8 40.7
05:05 1008 29.77 838 24.75 13.9 57.1 54 4.7 40.5
05:10 1008 29.77 838 24.75 14 57.2 51 4.2 39.6
05:15 1008 29.77 838 24.75 14.2 57.5 50 4 39.2
05:20 1008 29.77 838 24.75 14.3 57.8 48 3.7 38.6
05:25 1008 29.77 838 24.75 14.5 58.1 47 3.3 38
05:30 1008 29.77 838 24.75 14.6 58.4 46 3.2 37.8
05:35 1009 29.8 838 24.75 14.7 58.4 46 3.2 37.8
05:40 1009 29.8 838 24.75 14.6 58.3 46 3.1 37.7
05:45 1009 29.8 838 24.75 14.7 58.5 46 3.2 37.7
05:50 1009 29.8 838 24.75 14.7 58.4 45 3 37.4
05:55 1009 29.8 839 24.78 14.8 58.6 45 3 37.4
06:00 1010 29.83 839 24.78 14.8 58.7 48 4 39.2
06:05 1010 29.83 839 24.78 14.5 58 46 2.9 37.3
06:10 1010 29.83 839 24.78 14.3 57.8 54 5.2 41.3
06:15 1010 29.83 839 24.78 13.2 55.7 58 5.2 41.3
06:20 1010 29.83 839 24.78 12.7 54.8 59 4.9 40.8
06:25 1010 29.83 839 24.78 12.5 54.5 60 4.9 40.9
06:30 1010 29.83 839 24.78 12.4 54.4 60 4.9 40.9
06:35 1010 29.83 839 24.78 12.4 54.3 60 5 41
06:40 1010 29.83 839 24.78 12.3 54.1 62 5.2 41.4
06:45 1010 29.83 839 24.78 12 53.5 63 5.1 41.2
06:50 1010 29.83 839 24.78 12 53.6 62 4.9 40.9
06:55 1010 29.83 839 24.78 12.1 53.8 62 5.1 41.1
07:00 1010 29.83 839 24.78 12.3 54.1 60 4.7 40.5
07:05 1009 29.8 839 24.78 12.6 54.7 60 5 41
07:10 1010 29.83 839 24.78 12.5 54.5 61 5.2 41.4
07:15 1010 29.83 839 24.78 12.4 54.4 61 5.2 41.4
07:20 1010 29.83 839 24.78 12.3 54.2 62 5.3 41.6
07:25 1010 29.83 839 24.78 12.4 54.4 61 5.1 41.1
07:30 1010 29.83 839 24.78 12.5 54.4 59 4.6 40.3
07:35 1010 29.83 839 24.78 12.6 54.6 58 4.5 40.1
07:40 1009 29.8 839 24.78 12.7 54.9 58 4.6 40.3
07:45 1009 29.8 839 24.78 12.7 54.9 58 4.8 40.6
07:50 1009 29.8 839 24.78 12.6 54.7 59 5 40.9
07:55 1010 29.83 839 24.78 12.6 54.7 59 4.9 40.8
08:00 1010 29.83 839 24.78 12.6 54.6 60 5 40.9
08:05 1009 29.8 839 24.78 12.6 54.8 59 5 41
08:10 1009 29.8 839 24.78 12.8 55.1 59 5 41.1
08:15 1009 29.8 838 24.75 12.7 54.9 60 5.2 41.4
08:20 1009 29.8 839 24.78 12.8 55 59 5 41
08:25 1009 29.8 839 24.78 13 55.3 57 4.6 40.3
08:30 1009 29.8 839 24.78 13.2 55.7 58 5 41
08:35 1009 29.8 839 24.78 13.3 55.9 53 4.1 39.4
08:40 1009 29.8 839 24.78 13.8 56.8 55 5.1 41.2
08:45 1009 29.8 839 24.78 13.9 57 52 4.2 39.6
08:50 1009 29.8 839 24.78 14 57.3 55 5.1 41.2
08:55 1009 29.8 838 24.75 14.1 57.4 55 5.2 41.3
09:00 1009 29.8 838 24.75 14.1 57.5 54 5.2 41.3
09:05 1009 29.8 838 24.75 14.1 57.3 55 5.3 41.5
09:10 1009 29.8 838 24.75 14.3 57.7 53 4.9 40.9
09:15 1009 29.8 838 24.75 14.4 58 52 4.7 40.5
09:20 1009 29.8 838 24.75 14.5 58.1 51 4.5 40.1
09:25 1009 29.8 838 24.75 14.7 58.4 52 4.9 40.8
09:30 1009 29.8 838 24.75 14.7 58.5 50 4.5 40.2
09:35 1009 29.8 838 24.75 15 59 49 4.3 39.8
09:40 1009 29.8 838 24.75 15.3 59.5 48 4.5 40
09:45 1009 29.8 838 24.75 15.6 60.1 47 4.3 39.8
09:50 1009 29.8 838 24.75 16.5 61.7 43 4 39.2
09:55 1009 29.8 838 24.75 17.5 63.5 39 3.6 38.5
10:00 1009 29.8 838 24.75 18.4 65.2 35 2.7 36.9
10:05 1009 29.8 838 24.75 19.2 66.5 33 2.8 37
10:10 1008 29.77 838 24.75 19.3 66.7 33 3 37.3
10:15 1008 29.77 838 24.75 20.1 68.1 33 3.3 37.9
10:20 1008 29.77 838 24.75 20.3 68.5 34 4.2 39.6
10:25 1008 29.77 837 24.72 19.8 67.6 35 4.1 39.4
10:30 1008 29.77 837 24.72 18.6 65.5 40 4.9 40.8
10:35 1008 29.77 837 24.72 18.6 65.5 39 4.4 39.9
10:40 1008 29.77 837 24.72 18.8 65.8 37 3.8 38.8
10:45 1008 29.77 837 24.72 18.8 65.8 36 3.7 38.6
10:50 1008 29.77 837 24.72 19.2 66.5 38 4.6 40.3
10:55 1008 29.77 837 24.72 19.3 66.8 35 3.8 38.8
11:00 1008 29.77 837 24.72 19.6 67.3 36 4.4 40
11:05 1008 29.77 837 24.72 19.9 67.8 36 4.5 40.1
11:10 1008 29.77 837 24.72 20 67.9 38 5.5 41.9
11:15 1008 29.77 837 24.72 19.9 67.9 35 4.1 39.3
11:20 1008 29.77 837 24.72 20 68.1 38 5.3 41.6
11:25 1008 29.77 837 24.72 19.9 67.8 40 6.2 43.1
11:30 1008 29.77 837 24.72 20.2 68.3 38 5.5 41.9
11:35 1008 29.77 837 24.72 20.4 68.7 34 4.3 39.7
11:40 1008 29.77 837 24.72 20.4 68.8 35 4.5 40.2
11:45 1008 29.77 837 24.72 20.1 68.2 33 3.5 38.2
11:50 1008 29.77 837 24.72 20.2 68.3 30 2 35.7
11:55 1007 29.74 837 24.72 20.5 68.8 24 -0.5 31.2
12:00 1007 29.74 837 24.72 21 69.7 22 -1.5 29.3
12:05 1007 29.74 837 24.72 21 69.7 22 -1.1 30
12:10 1007 29.74 837 24.72 20.8 69.5 21 -2.3 27.8
12:15 1007 29.74 837 24.72 21 69.7 20 -2.5 27.5
12:20 1007 29.74 836 24.69 21 69.8 21 -2 28.5
12:25 1007 29.74 836 24.69 21.1 70 22 -1.3 29.6
12:30 1007 29.74 836 24.69 21.2 70.2 21 -1.8 28.7
12:35 1007 29.74 836 24.69 21.1 70 21 -2 28.5
12:40 1007 29.74 836 24.69 21.3 70.3 23 -0.5 31.2
12:45 1007 29.74 836 24.69 22 71.5 20 -1.8 28.7
12:50 1007 29.74 836 24.69 22.3 72.2 20 -1.9 28.7
12:55 1007 29.74 836 24.69 22.3 72.1 20 -1.5 29.3
13:00 1007 29.74 836 24.69 22.4 72.4 20 -1.3 29.7
13:05 1007 29.74 836 24.69 22.6 72.6 22 -0.1 31.9
13:10 1007 29.74 836 24.69 22.4 72.3 19 -2.5 27.5
13:15 1007 29.74 836 24.69 22.6 72.6 20 -1.5 29.3
13:20 1007 29.74 836 24.69 22.7 72.9 19 -2.1 28.2
13:25 1007 29.74 836 24.69 22.8 73 19 -2.1 28.2
13:30 1007 29.74 836 24.69 23 73.4 18 -2.3 27.9
13:35 1007 29.74 836 24.69 23.3 73.9 17 -2.6 27.4
13:40 1007 29.74 836 24.69 22.9 73.3 18 -2.4 27.7
13:45 1007 29.74 836 24.69 23.1 73.6 19 -1.3 29.7
13:50 1007 29.74 836 24.69 23.1 73.6 18 -2.3 27.8
13:55 1007 29.74 836 24.69 23 73.4 18 -2.4 27.7
14:00 1007 29.74 836 24.69 22.9 73.2 18 -2.1 28.2
14:05 1006 29.71 836 24.69 23.1 73.6 20 -1.1 30
14:10 1006 29.71 836 24.69 23.3 73.9 18 -2.5 27.5
14:15 1006 29.71 836 24.69 23.2 73.7 19 -1.9 28.6
14:20 1006 29.71 836 24.69 23.4 74.2 18 -2.2 28
14:25 1006 29.71 836 24.69 23.1 73.6 16 -3.9 25
14:30 1006 29.71 836 24.69 23.1 73.7 16 -4.1 24.7
14:35 1006 29.71 835 24.66 23.3 74 18 -2 28.4
14:40 1006 29.71 835 24.66 23.1 73.6 18 -2.1 28.3
14:45 1006 29.71 835 24.66 23 73.5 16 -3.9 24.9
14:50 1006 29.71 835 24.66 22.9 73.3 16 -3.6 25.5
14:55 1006 29.71 835 24.66 22.9 73.1 18 -2.3 27.9
15:00 1006 29.71 835 24.66 23.1 73.5 18 -2.7 27.2
15:05 1006 29.71 835 24.66 23.1 73.6 18 -2.5 27.5
15:10 1006 29.71 835 24.66 23.2 73.8 15 -4.2 24.4
15:15 1006 29.71 835 24.66 23.3 73.9 16 -3.6 25.5
15:20 1006 29.71 835 24.66 23.6 74.5 16 -3.7 25.3
15:25 1006 29.71 835 24.66 24.1 75.4 17 -2.2 28.1
15:30 1006 29.71 835 24.66 23.9 75.1 17 -2.2 28.1
15:35 1006 29.71 835 24.66 23.6 74.5 16 -3.6 25.5
15:40 1006 29.71 835 24.66 23.5 74.3 18 -2.3 27.9
15:45 1006 29.71 835 24.66 23.6 74.4 16 -3.6 25.5
15:50 1006 29.71 835 24.66 23.2 73.8 17 -2.8 26.9
15:55 1006 29.71 835 24.66 23.1 73.6 16 -3.9 25.1
16:00 1005 29.68 835 24.66 23.5 74.3 15 -4.9 23.3
16:05 1005 29.68 835 24.66 23.7 74.6 15 -4 24.9
16:10 1005 29.68 835 24.66 24.1 75.3 16 -3.3 26.1
16:15 1005 29.68 835 24.66 24.5 76.1 16 -2.9 26.8
16:20 1005 29.68 835 24.66 24.4 76 14 -4.5 23.9
16:25 1005 29.68 835 24.66 24 75.2 15 -4.4 24.1
16:30 1005 29.68 835 24.66 24.2 75.5 14 -4.9 23.2
16:35 1005 29.68 835 24.66 24.1 75.4 14 -5.1 22.8
16:40 1005 29.68 835 24.66 23.4 74 15 -4.8 23.3
16:45 1005 29.68 835 24.66 23.3 73.9 15 -4.6 23.8
16:50 1005 29.68 835 24.66 23.4 74.1 17 -2.8 26.9
16:55 1005 29.68 834 24.63 23.7 74.6 16 -3.3 26.1
17:00 1005 29.68 835 24.66 23.6 74.6 17 -2.8 27
17:05 1005 29.68 834 24.63 22.9 73.3 20 -1.1 30
17:10 1005 29.68 835 24.66 23 73.5 19 -1.3 29.6
17:15 1005 29.68 835 24.66 22.7 72.9 20 -1 30.3
17:20 1005 29.68 835 24.66 22.6 72.7 21 -0.3 31.5
17:25 1005 29.68 835 24.66 22.7 72.9 18 -2.6 27.4
17:30 1005 29.68 835 24.66 22.5 72.6 20 -1.6 29.1
17:35 1005 29.68 835 24.66 22.4 72.3 20 -1.8 28.8
17:40 1005 29.68 835 24.66 22.3 72.2 15 -5 23
17:45 1005 29.68 835 24.66 22.5 72.4 16 -4.1 24.6
17:50 1006 29.71 835 24.66 22.5 72.5 16 -4.2 24.4
17:55 1006 29.71 835 24.66 22 71.5 28 3.1 37.5
18:00 1006 29.71 835 24.66 20.7 69.2 30 2.7 36.9
18:05 1006 29.71 835 24.66 20.6 69.1 30 2.5 36.5
18:10 1005 29.68 835 24.66 20.7 69.3 31 3.2 37.8
18:15 1005 29.68 835 24.66 20.7 69.3 31 3.3 37.9
18:20 1005 29.68 835 24.66 20.5 68.8 31 2.9 37.1
18:25 1005 29.68 835 24.66 20.1 68.1 33 3.4 38.2
18:30 1005 29.68 835 24.66 19.9 67.7 33 3.1 37.6
18:35 1005 29.68 835 24.66 19.4 66.9 33 2.8 37
18:40 1005 29.68 835 24.66 19.3 66.7 33 2.9 37.2
18:45 1005 29.68 835 24.66 19 66.3 33 2.5 36.4
18:50 1006 29.71 835 24.66 18.8 65.8 35 3.2 37.8
18:55 1006 29.71 835 24.66 18.7 65.7 34 2.5 36.5
19:00 1006 29.71 835 24.66 18.7 65.6 34 2.5 36.4
19:05 1006 29.71 835 24.66 18.6 65.5 34 2.6 36.6
19:10 1006 29.71 835 24.66 18.6 65.5 34 2.5 36.4
19:15 1006 29.71 835 24.66 18.5 65.3 34 2.6 36.6
19:20 1006 29.71 835 24.66 18.5 65.3 34 2.3 36.2
19:25 1006 29.71 835 24.66 18.5 65.2 33 2.2 36
19:30 1006 29.71 835 24.66 18.4 65.2 34 2.4 36.4
19:35 1006 29.71 835 24.66 18.4 65.1 33 2 35.5
19:40 1006 29.71 835 24.66 18.3 64.9 33 1.9 35.5
19:45 1006 29.71 835 24.66 18.3 65 34 2.1 35.8
19:50 1006 29.71 835 24.66 18.3 64.9 34 2.1 35.8
19:55 1006 29.71 835 24.66 18.2 64.8 33 1.9 35.4
20:00 1006 29.71 835 24.66 18.2 64.8 33 1.9 35.4
20:05 1006 29.71 835 24.66 18.2 64.7 34 2.2 35.9
20:10 1006 29.71 835 24.66 18.1 64.5 34 2.2 35.9
20:15 1006 29.71 835 24.66 18 64.3 35 2.3 36.1
20:20 1006 29.71 835 24.66 17.9 64.2 35 2.2 35.9
20:25 1006 29.71 835 24.66 17.8 64.1 34 2 35.5
20:30 1006 29.71 835 24.66 17.8 64 34 1.9 35.5
20:35 1006 29.71 835 24.66 17.6 63.7 35 2 35.6
20:40 1006 29.71 835 24.66 17.4 63.3 39 3.5 38.3
20:45 1006 29.71 835 24.66 16.6 61.8 42 3.5 38.4
20:50 1006 29.71 835 24.66 16.1 61 41 3.1 37.6
20:55 1006 29.71 835 24.66 16 60.9 43 3.4 38.2
21:00 1006 29.71 835 24.66 16 60.9 41 3 37.3
21:05 1006 29.71 835 24.66 16 60.7 41 2.8 37
21:10 1006 29.71 835 24.66 15.8 60.5 42 2.9 37.2
21:15 1006 29.71 835 24.66 15.6 60.1 43 3.1 37.6
21:20 1006 29.71 835 24.66 15.5 59.9 41 2.5 36.4
21:25 1006 29.71 835 24.66 15.6 60 46 4.1 39.4
21:30 1006 29.71 835 24.66 15.2 59.3 45 3.5 38.3
21:35 1006 29.71 835 24.66 14.8 58.7 46 3.5 38.3
21:40 1006 29.71 835 24.66 14.5 58.2 50 4.4 39.9
21:45 1006 29.71 835 24.66 14.5 58 47 3.5 38.3
21:50 1006 29.71 835 24.66 14.1 57.3 49 3.5 38.4
21:55 1006 29.71 835 24.66 13.9 57 48 3.2 37.8
22:00 1006 29.71 835 24.66 14 57.2 51 4 39.3
22:05 1006 29.71 835 24.66 13.7 56.6 50 3.5 38.3
22:10 1006 29.71 835 24.66 13.4 56.2 50 3.3 37.9
22:15 1005 29.68 835 24.66 13.4 56.1 51 3.5 38.3
22:20 1005 29.68 835 24.66 13.4 56.1 50 3.4 38.1
22:25 1005 29.68 835 24.66 13.1 55.6 51 3.2 37.8
22:30 1005 29.68 835 24.66 13.1 55.5 51 3.3 38
22:35 1005 29.68 835 24.66 12.8 55 52 3.2 37.8
22:40 1006 29.71 835 24.66 13 55.4 52 3.5 38.3
22:45 1006 29.71 835 24.66 13.1 55.7 51 3.2 37.8
22:50 1005 29.68 835 24.66 13.4 56.2 50 3.2 37.8
22:55 1005 29.68 835 24.66 13.6 56.4 49 3.2 37.8
23:00 1006 29.71 835 24.66 13.6 56.5 50 3.4 38.1
23:05 1006 29.71 835 24.66 13.6 56.5 50 3.4 38.1
23:10 1006 29.71 835 24.66 13.4 56.2 50 3.4 38.2
23:15 1005 29.68 835 24.66 13.3 55.9 52 3.6 38.5
23:20 1005 29.68 834 24.63 13.2 55.8 52 3.7 38.7
23:25 1005 29.68 834 24.63 12.9 55.3 53 3.8 38.8
23:30 1005 29.68 834 24.63 12.7 54.8 54 3.8 38.8
23:35 1005 29.68 834 24.63 12.4 54.2 56 3.9 39
23:40 1005 29.68 834 24.63 12.1 53.8 56 3.7 38.7
23:45 1005 29.68 834 24.63 12.1 53.7 56 3.7 38.6
23:50 1005 29.68 834 24.63 12.1 53.8 55 3.5 38.3
23:55 1005 29.68 834 24.63 12.4 54.3 55 3.6 38.6
24:00 1005 29.68 834 24.63 12.2 53.9 56 3.8 38.9